Time;durP1;ratioP1;P1;durP2;ratioP2;P2;SDS_P1;SDS_P2;PMS_P1;PMS_P2;Temp;Humidity;BMP_temperature;BMP_pressure;BME280_temperature;BME280_humidity;BME280_pressure;Samples;Min_cycle;Max_cycle;Signal;HPM_P1;HPM_P2
2023/05/05 00:02:15;;;;;;;31.27;18.48;;;17.40;93.00;;;;;;5090683;28;20043;-74
2023/05/05 00:05:19;;;;;;;27.58;17.58;;;17.40;93.20;;;;;;5091444;28;20656;-74
2023/05/05 00:08:23;;;;;;;29.77;18.45;;;17.40;92.90;;;;;;5092735;28;20047;-74
2023/05/05 00:11:27;;;;;;;28.38;19.20;;;17.40;93.10;;;;;;5091408;28;20526;-74
2023/05/05 00:14:31;;;;;;;35.92;20.67;;;17.20;93.60;;;;;;5091100;28;20043;-74
2023/05/05 00:17:35;;;;;;;34.03;21.70;;;17.00;94.10;;;;;;5091269;28;20050;-75
2023/05/05 00:20:39;;;;;;;26.65;19.20;;;16.80;94.40;;;;;;5090780;28;20043;-75
2023/05/05 00:23:43;;;;;;;31.65;19.48;;;16.80;94.60;;;;;;5090368;28;20579;-74
2023/05/05 00:26:47;;;;;;;35.28;19.80;;;16.60;94.70;;;;;;5090706;28;20047;-74
2023/05/05 00:29:51;;;;;;;28.15;18.73;;;16.50;94.90;;;;;;5089872;28;20047;-74
2023/05/05 00:32:56;;;;;;;48.35;23.38;;;16.50;94.70;;;;;;5090619;28;20051;-74
2023/05/05 00:35:59;;;;;;;47.45;24.80;;;17.10;95.00;;;;;;5090748;28;20059;-74
2023/05/05 00:39:03;;;;;;;36.40;22.17;;;16.70;95.10;;;;;;5090583;28;20047;-74
2023/05/05 00:42:07;;;;;;;41.50;22.20;;;16.70;95.10;;;;;;5090543;28;20047;-75
2023/05/05 00:45:14;;;;;;;53.00;27.83;;;16.60;95.20;;;;;;5090369;28;20051;-75
2023/05/05 00:48:18;;;;;;;59.33;31.10;;;16.60;95.40;;;;;;5090487;28;20043;-74
2023/05/05 00:51:24;;;;;;;61.58;31.60;;;16.50;95.20;;;;;;5089742;28;20058;-74
2023/05/05 00:54:28;;;;;;;40.15;24.55;;;16.30;95.90;;;;;;5089503;28;20039;-75
2023/05/05 00:57:34;;;;;;;44.50;26.35;;;16.30;96.20;;;;;;5089300;28;20039;-73
2023/05/05 01:00:38;;;;;;;37.13;22.52;;;16.10;96.10;;;;;;5092220;28;20043;-75
2023/05/05 01:03:42;;;;;;;34.58;20.42;;;16.20;96.50;;;;;;5092644;28;20522;-74
2023/05/05 01:07:06;;;;;;;32.70;20.20;;;16.10;96.30;;;;;;5093412;28;20055;-74
2023/05/05 01:10:40;;;;;;;30.88;19.00;;;15.80;96.70;;;;;;5093007;28;20047;-74
2023/05/05 01:13:56;;;;;;;28.75;19.83;;;15.60;96.10;;;;;;5092915;28;20043;-74
2023/05/05 01:17:14;;;;;;;35.70;20.27;;;17.60;96.60;;;;;;5092957;28;20051;-74
2023/05/05 01:20:27;;;;;;;37.03;21.02;;;16.20;96.10;;;;;;5093572;28;20534;-74
2023/05/05 01:23:34;;;;;;;47.88;28.25;;;15.90;95.80;;;;;;5092477;28;20051;-74
2023/05/05 01:27:05;;;;;;;29.40;18.90;;;16.00;95.10;;;;;;5092732;28;20043;-75
2023/05/05 01:30:33;;;;;;;26.33;17.33;;;16.00;95.50;;;;;;5093424;28;20047;-74
2023/05/05 01:33:46;;;;;;;24.77;17.48;;;16.50;94.90;;;;;;5093285;28;20514;-74
2023/05/05 01:37:12;;;;;;;32.42;18.63;;;16.20;94.40;;;;;;5092278;28;20043;-74
2023/05/05 01:40:21;;;;;;;24.08;15.20;;;15.40;93.90;;;;;;5093081;28;20475;-75
2023/05/05 01:43:29;;;;;;;17.63;12.95;;;16.30;94.60;;;;;;5092179;28;20051;-75
2023/05/05 01:46:35;;;;;;;18.95;12.32;;;14.90;94.60;;;;;;5092489;28;20047;-75
2023/05/05 01:49:42;;;;;;;19.98;12.77;;;15.70;94.40;;;;;;5093318;28;20499;-75
2023/05/05 01:52:46;;;;;;;15.90;10.40;;;13.70;94.10;;;;;;5092936;28;20054;-75
2023/05/05 01:55:53;;;;;;;15.60;10.40;;;15.60;94.50;;;;;;5093239;28;20055;-75
2023/05/05 01:59:00;;;;;;;15.05;9.55;;;15.70;94.60;;;;;;5092009;28;20039;-75
2023/05/05 02:02:07;;;;;;;14.98;9.45;;;17.30;94.00;;;;;;5092143;28;20058;-75
2023/05/05 02:05:12;;;;;;;13.18;10.20;;;12.50;92.60;;;;;;5091932;28;20047;-75
2023/05/05 02:08:17;;;;;;;13.30;10.30;;;15.20;93.30;;;;;;5092899;28;20043;-75
2023/05/05 02:11:22;;;;;;;12.38;9.20;;;15.80;93.60;;;;;;5091152;28;20403;-74
2023/05/05 02:14:29;;;;;;;10.18;7.80;;;14.50;93.20;;;;;;5092713;28;20058;-75
2023/05/05 02:17:33;;;;;;;11.45;7.35;;;15.90;93.00;;;;;;5091783;28;20419;-75
2023/05/05 02:20:39;;;;;;;14.20;8.50;;;15.90;92.70;;;;;;5092832;28;20051;-75
2023/05/05 02:23:45;;;;;;;17.42;9.77;;;16.00;92.90;;;;;;5091382;28;20055;-75
2023/05/05 02:26:52;;;;;;;12.35;9.02;;;15.90;92.90;;;;;;5091418;28;20395;-74
2023/05/05 02:30:00;;;;;;;13.63;8.68;;;15.90;93.30;;;;;;5092132;28;20051;-75
2023/05/05 02:33:11;;;;;;;15.00;8.73;;;15.80;93.40;;;;;;5091359;28;20502;-75
2023/05/05 02:36:20;;;;;;;11.95;9.07;;;15.80;93.50;;;;;;5092270;28;20051;-74
2023/05/05 02:39:43;;;;;;;12.70;9.48;;;15.80;93.70;;;;;;5091362;28;20527;-74
2023/05/05 02:42:53;;;;;;;17.52;10.90;;;15.70;93.60;;;;;;5091895;28;20058;-75
2023/05/05 02:46:00;;;;;;;18.00;11.50;;;15.70;93.80;;;;;;5091146;28;20035;-75
2023/05/05 02:49:05;;;;;;;16.73;11.20;;;15.50;94.10;;;;;;5091004;28;20121;-74
2023/05/05 02:52:09;;;;;;;17.75;11.05;;;15.60;94.30;;;;;;5091224;28;20047;-74
2023/05/05 02:55:15;;;;;;;15.80;10.88;;;15.70;94.50;;;;;;5091105;28;20047;-74
2023/05/05 02:58:23;;;;;;;13.30;10.00;;;15.80;94.00;;;;;;5091688;28;20051;-75
2023/05/05 03:02:11;;;;;;;13.57;9.93;;;14.80;93.50;;;;;;5090615;28;20047;-75
2023/05/05 03:05:29;;;;;;;17.58;10.15;;;16.60;93.60;;;;;;5077917;28;20055;-73
2023/05/05 03:08:43;;;;;;;11.48;9.57;;;15.50;93.30;;;;;;5090752;28;20035;-74
2023/05/05 03:12:04;;;;;;;15.13;10.35;;;15.50;93.50;;;;;;5090638;28;20047;-74
2023/05/05 03:15:17;;;;;;;14.00;9.57;;;15.40;93.60;;;;;;5090467;28;20546;-74
2023/05/05 03:18:23;;;;;;;15.40;10.32;;;15.40;93.90;;;;;;5090865;28;20047;-74
2023/05/05 03:21:33;;;;;;;45.22;20.02;;;15.50;93.80;;;;;;5090640;28;20051;-74
2023/05/05 03:24:37;;;;;;;25.15;13.65;;;15.60;93.70;;;;;;5089321;28;20416;-74
2023/05/05 03:27:45;;;;;;;25.40;14.52;;;15.50;93.70;;;;;;5090205;28;20094;-74
2023/05/05 03:30:51;;;;;;;19.23;11.63;;;13.00;93.80;;;;;;5090661;28;20371;-74
2023/05/05 03:33:55;;;;;;;17.42;11.70;;;12.80;93.80;;;;;;5091125;28;20511;-75
2023/05/05 03:37:02;;;;;;;15.73;11.43;;;15.50;94.50;;;;;;5091037;28;20039;-75
2023/05/05 03:40:08;;;;;;;16.52;11.82;;;15.20;94.50;;;;;;5090085;28;20051;-75
2023/05/05 03:43:12;;;;;;;15.82;11.45;;;;;;;;;;5090601;28;20055;-74
2023/05/05 03:46:17;;;;;;;18.70;11.52;;;;;;;;;;5090971;28;20506;-74
2023/05/05 03:49:21;;;;;;;16.38;12.63;;;16.00;95.10;;;;;;5090154;28;20545;-74
2023/05/05 03:52:26;;;;;;;20.77;12.75;;;14.90;95.20;;;;;;5090018;28;20042;-74
2023/05/05 03:55:30;;;;;;;20.88;12.65;;;15.80;95.60;;;;;;5090858;28;20047;-75
2023/05/05 03:58:34;;;;;;;19.15;13.50;;;16.60;95.80;;;;;;5090889;28;20035;-75
2023/05/05 04:01:38;;;;;;;17.48;12.70;;;14.90;95.30;;;;;;5090122;28;20502;-75
2023/05/05 04:04:42;;;;;;;18.48;11.73;;;14.60;95.30;;;;;;5089692;28;20518;-75
2023/05/05 04:07:47;;;;;;;28.00;14.05;;;12.70;95.30;;;;;;5090055;28;20043;-75
2023/05/05 04:10:52;;;;;;;20.48;13.85;;;;;;;;;;5078818;28;20098;-74
2023/05/05 04:13:57;;;;;;;20.42;12.98;;;;;;;;;;5089981;28;20047;-73
2023/05/05 04:17:03;;;;;;;24.35;13.93;;;14.60;95.60;;;;;;5090212;28;20043;-74
2023/05/05 04:20:08;;;;;;;22.33;13.63;;;14.30;95.60;;;;;;5090530;28;20058;-75
2023/05/05 04:23:12;;;;;;;26.08;14.73;;;14.60;95.70;;;;;;5089655;28;20066;-75
2023/05/05 04:26:17;;;;;;;21.20;13.65;;;;;;;;;;5090806;28;20043;-75
2023/05/05 04:29:23;;;;;;;22.73;14.43;;;14.40;95.80;;;;;;5089756;28;20051;-75
2023/05/05 04:32:27;;;;;;;22.38;13.52;;;14.60;95.90;;;;;;5089706;28;20043;-75
2023/05/05 04:35:32;;;;;;;30.10;14.18;;;15.00;95.60;;;;;;5079918;28;20043;-75
2023/05/05 04:38:36;;;;;;;29.52;13.88;;;16.40;95.50;;;;;;5082032;28;20039;-76
2023/05/05 04:41:41;;;;;;;35.53;13.32;;;16.20;94.20;;;;;;5093944;28;20051;-75
2023/05/05 04:44:46;;;;;;;24.20;12.90;;;18.00;93.00;;;;;;5093336;28;20047;-75
2023/05/05 04:47:50;;;;;;;20.13;11.93;;;18.60;90.80;;;;;;5094266;28;20424;-75
2023/05/05 04:50:54;;;;;;;18.95;11.75;;;19.00;88.00;;;;;;5093212;28;20122;-75
2023/05/05 04:53:58;;;;;;;19.77;11.18;;;19.70;88.50;;;;;;5093275;28;20506;-75
2023/05/05 04:57:02;;;;;;;19.52;12.27;;;21.10;83.80;;;;;;5094192;28;20051;-75
2023/05/05 05:00:08;;;;;;;25.85;15.32;;;21.60;83.20;;;;;;5093448;28;20043;-74
2023/05/05 05:03:11;;;;;;;25.67;14.68;;;22.00;79.10;;;;;;5093342;28;20050;-75
2023/05/05 05:06:15;;;;;;;18.25;10.48;;;22.80;80.20;;;;;;5094173;28;20391;-74
2023/05/05 05:09:19;;;;;;;19.90;10.85;;;23.10;77.90;;;;;;5093012;28;20047;-75
2023/05/05 05:12:23;;;;;;;11.73;10.05;;;23.30;77.20;;;;;;5081504;28;20055;-75
2023/05/05 05:15:27;;;;;;;17.08;9.93;;;23.40;76.60;;;;;;5093204;28;20042;-75
2023/05/05 05:18:32;;;;;;;18.08;9.60;;;23.40;76.20;;;;;;5092676;28;20063;-75
2023/05/05 05:21:36;;;;;;;15.40;10.43;;;23.00;76.30;;;;;;5093534;28;20039;-66
2023/05/05 05:24:40;;;;;;;13.23;9.80;;;22.70;77.70;;;;;;5092452;28;20047;-67
2023/05/05 05:27:45;;;;;;;15.77;10.63;;;22.00;78.50;;;;;;5092421;28;20059;-67
2023/05/05 05:30:50;;;;;;;17.92;9.45;;;21.50;80.10;;;;;;5092906;28;20043;-67
2023/05/05 05:33:55;;;;;;;15.07;9.20;;;21.10;80.70;;;;;;5092245;28;20662;-65
2023/05/05 05:37:00;;;;;;;18.77;8.77;;;20.90;81.00;;;;;;5092483;28;20051;-67
2023/05/05 05:40:05;;;;;;;18.05;12.05;;;20.90;81.00;;;;;;5093226;28;20051;-66
2023/05/05 05:43:11;;;;;;;15.43;8.77;;;21.10;81.50;;;;;;5092266;28;20079;-66
2023/05/05 05:46:17;;;;;;;16.15;8.10;;;20.90;81.30;;;;;;5091341;28;20051;-66
2023/05/05 05:49:21;;;;;;;12.15;8.68;;;21.00;81.50;;;;;;5092210;28;20047;-66
2023/05/05 05:52:25;;;;;;;17.67;9.57;;;20.90;81.90;;;;;;5092260;28;20051;-66
2023/05/05 05:55:29;;;;;;;16.83;9.45;;;21.00;82.00;;;;;;5093191;28;20060;-66
2023/05/05 05:58:34;;;;;;;31.35;11.13;;;20.80;82.50;;;;;;5092221;28;20066;-66
2023/05/05 06:01:39;;;;;;;21.27;9.73;;;21.00;82.50;;;;;;5091965;28;20047;-68
2023/05/05 06:04:43;;;;;;;17.65;9.18;;;21.10;82.10;;;;;;5091826;28;20055;-66
2023/05/05 06:07:47;;;;;;;14.65;9.50;;;21.30;81.20;;;;;;5092775;28;20043;-68
2023/05/05 06:10:51;;;;;;;18.70;9.00;;;21.40;80.90;;;;;;5091500;28;20502;-68
2023/05/05 06:13:57;;;;;;;17.95;8.65;;;21.40;81.60;;;;;;5091275;28;20063;-67
2023/05/05 06:17:01;;;;;;;19.15;9.63;;;21.60;80.80;;;;;;5089516;28;20051;-66
2023/05/05 06:20:08;;;;;;;12.25;8.02;;;21.70;81.10;;;;;;5091433;28;20043;-67
2023/05/05 06:23:11;;;;;;;12.30;7.68;;;21.90;80.20;;;;;;5091103;28;20616;-66
2023/05/05 06:26:20;;;;;;;19.42;8.57;;;22.20;79.30;;;;;;5091481;28;20047;-65
2023/05/05 06:29:25;;;;;;;18.95;8.20;;;22.50;80.00;;;;;;5092267;28;20051;-66
2023/05/05 06:32:28;;;;;;;12.88;7.25;;;22.50;80.70;;;;;;5092161;28;20043;-66
2023/05/05 06:35:32;;;;;;;11.35;7.88;;;22.50;80.10;;;;;;5091489;28;20051;-67
2023/05/05 06:38:37;;;;;;;18.92;7.82;;;22.70;78.30;;;;;;5092190;28;20039;-66
2023/05/05 06:41:40;;;;;;;12.82;7.10;;;22.80;78.30;;;;;;5092104;28;20363;-66
2023/05/05 06:44:44;;;;;;;13.75;7.68;;;23.00;78.00;;;;;;5091557;28;20055;-67
2023/05/05 06:47:48;;;;;;;14.27;7.47;;;23.30;76.80;;;;;;5091783;28;20051;-65
2023/05/05 06:50:52;;;;;;;22.27;8.10;;;23.40;76.70;;;;;;5091717;28;20086;-66
2023/05/05 06:53:56;;;;;;;10.95;7.00;;;23.60;77.20;;;;;;5091737;28;20048;-68
2023/05/05 06:56:59;;;;;;;17.75;6.95;;;23.60;76.00;;;;;;5091103;28;20518;-65
2023/05/05 07:00:06;;;;;;;10.45;6.22;;;23.90;76.20;;;;;;5091688;28;20039;-71
2023/05/05 07:03:10;;;;;;;17.15;7.03;;;24.00;75.20;;;;;;5091391;28;20062;-65
2023/05/05 07:06:14;;;;;;;14.38;6.90;;;23.70;74.60;;;;;;5091486;28;20055;-66
2023/05/05 07:09:19;;;;;;;13.95;6.68;;;23.70;74.90;;;;;;5091388;28;20043;-67
2023/05/05 07:12:23;;;;;;;13.38;8.27;;;23.90;73.90;;;;;;5090507;28;20396;-66
2023/05/05 07:15:27;;;;;;;23.95;7.95;;;24.20;73.60;;;;;;5091227;28;20039;-68
2023/05/05 07:18:31;;;;;;;13.57;5.47;;;24.40;73.80;;;;;;5091222;28;20051;-66
2023/05/05 07:21:35;;;;;;;7.47;5.03;;;24.80;72.70;;;;;;5091280;28;20412;-66
2023/05/05 07:24:39;;;;;;;8.10;4.68;;;24.70;73.10;;;;;;5091309;28;20106;-66
2023/05/05 07:27:43;;;;;;;10.85;4.90;;;24.80;72.90;;;;;;5091078;28;20046;-65
2023/05/05 07:30:47;;;;;;;13.40;6.65;;;25.30;72.40;;;;;;5090543;28;20506;-66
2023/05/05 07:33:51;;;;;;;11.60;4.97;;;25.40;71.10;;;;;;5091027;28;20043;-65
2023/05/05 07:36:55;;;;;;;8.10;4.63;;;25.30;70.60;;;;;;5091243;28;20513;-67
2023/05/05 07:39:59;;;;;;;7.82;4.38;;;25.30;70.10;;;;;;5091094;28;20055;-67
2023/05/05 07:43:03;;;;;;;7.95;3.80;;;25.40;68.80;;;;;;5090842;28;20047;-66
2023/05/05 07:46:07;;;;;;;10.05;4.38;;;25.60;69.30;;;;;;5091260;28;20054;-65
2023/05/05 07:49:12;;;;;;;9.30;4.13;;;25.50;69.10;;;;;;5091314;28;20395;-65
2023/05/05 07:52:15;;;;;;;6.82;4.00;;;25.80;70.50;;;;;;5091114;28;20051;-65
2023/05/05 07:55:19;;;;;;;12.32;4.30;;;26.10;67.90;;;;;;5091161;28;20039;-69
2023/05/05 07:58:23;;;;;;;10.20;3.60;;;26.20;68.40;;;;;;5090915;28;20039;-65
2023/05/05 08:01:27;;;;;;;9.38;4.28;;;26.40;69.20;;;;;;5090856;28;20499;-65
2023/05/05 08:04:31;;;;;;;7.10;3.75;;;26.70;69.20;;;;;;5090730;28;20066;-66
2023/05/05 08:07:39;;;;;;;8.38;4.90;;;26.60;69.20;;;;;;5091097;28;20225;-65
2023/05/05 08:10:43;;;;;;;11.05;4.10;;;26.60;70.00;;;;;;5093016;28;20046;-65
2023/05/05 08:13:47;;;;;;;8.35;4.05;;;26.70;68.80;;;;;;5094931;28;20039;-67
2023/05/05 08:16:51;;;;;;;8.40;4.10;;;26.80;66.90;;;;;;5095149;28;20043;-66
2023/05/05 08:19:55;;;;;;;8.77;4.03;;;26.80;68.70;;;;;;5094247;28;20419;-64
2023/05/05 08:22:59;;;;;;;7.00;3.38;;;26.90;66.00;;;;;;5094714;28;20043;-65
2023/05/05 08:26:10;;;;;;;7.03;3.97;;;27.00;67.40;;;;;;5094857;28;20045;-66
2023/05/05 08:29:14;;;;;;;;;;;27.10;66.80;;;;;;5094640;28;20051;-66
2023/05/05 08:32:18;;;;;;;5.68;3.00;;;27.20;66.30;;;;;;5094811;28;19908;-66
2023/05/05 08:35:22;;;;;;;5.28;2.97;;;27.20;64.70;;;;;;5094965;28;20040;-65
2023/05/05 08:38:26;;;;;;;7.45;2.88;;;26.80;63.60;;;;;;5094719;28;20051;-66
2023/05/05 08:41:31;;;;;;;6.57;2.70;;;26.70;64.20;;;;;;5094481;28;20039;-66
2023/05/05 08:44:35;;;;;;;5.32;2.53;;;26.90;64.30;;;;;;5094483;28;20055;-65
2023/05/05 08:47:41;;;;;;;7.40;3.60;;;26.80;63.90;;;;;;5094264;28;20415;-66
2023/05/05 08:50:51;;;;;;;11.75;3.63;;;26.80;63.10;;;;;;5094180;28;20399;-66
2023/05/05 08:54:02;;;;;;;5.40;3.30;;;26.60;62.90;;;;;;5094357;28;20066;-67
2023/05/05 08:57:08;;;;;;;6.88;2.75;;;26.40;62.80;;;;;;5093607;28;20043;-64
2023/05/05 09:00:13;;;;;;;7.75;3.95;;;26.40;63.80;;;;;;5094285;28;20043;-64
2023/05/05 09:03:17;;;;;;;5.15;3.15;;;26.50;64.40;;;;;;5093621;28;20055;-66
2023/05/05 09:06:24;;;;;;;8.27;4.05;;;26.60;65.40;;;;;;5090292;28;20051;-65
2023/05/05 09:09:29;;;;;;;5.13;3.72;;;26.70;65.40;;;;;;5092059;28;20062;-66
2023/05/05 09:12:34;;;;;;;8.57;3.88;;;26.80;65.50;;;;;;5092784;28;20046;-66
2023/05/05 09:15:40;;;;;;;7.70;4.13;;;26.80;65.90;;;;;;5093018;28;20039;-67
2023/05/05 09:18:44;;;;;;;6.68;3.33;;;26.80;65.40;;;;;;5093283;28;20043;-67
2023/05/05 09:21:48;;;;;;;9.73;3.97;;;26.80;65.10;;;;;;5093453;28;20043;-67
2023/05/05 09:24:55;;;;;;;6.93;3.38;;;26.80;64.00;;;;;;5093204;28;20059;-67
2023/05/05 09:28:10;;;;;;;4.85;3.05;;;26.90;64.40;;;;;;5092792;28;20047;-66
2023/05/05 09:31:15;;;;;;;5.07;3.10;;;26.90;63.40;;;;;;5092471;28;20050;-67
2023/05/05 09:34:19;;;;;;;4.50;3.25;;;26.90;64.10;;;;;;5093427;28;20043;-67
2023/05/05 09:37:30;;;;;;;7.50;2.90;;;26.90;64.10;;;;;;5094139;28;20051;-66
2023/05/05 09:40:43;;;;;;;;;;;27.00;63.90;;;;;;5093692;28;20039;-66
2023/05/05 09:43:51;;;;;;;9.13;3.30;;;27.00;63.30;;;;;;5093065;28;19916;-67
2023/05/05 09:46:57;;;;;;;6.75;2.83;;;26.90;63.00;;;;;;5093114;28;20399;-67
2023/05/05 09:50:01;;;;;;;6.47;2.70;;;27.00;63.10;;;;;;5093339;28;20391;-67
2023/05/05 09:53:06;;;;;;;4.70;2.47;;;26.80;62.80;;;;;;5092809;28;20043;-65
2023/05/05 09:56:10;;;;;;;9.52;2.60;;;26.90;62.70;;;;;;5093079;28;20039;-64
2023/05/05 09:59:14;;;;;;;6.35;2.80;;;27.00;62.70;;;;;;5093243;28;20051;-66
2023/05/05 10:02:18;;;;;;;4.15;2.70;;;27.10;62.20;;;;;;5092998;28;20403;-63
2023/05/05 10:05:22;;;;;;;9.43;3.00;;;27.20;62.30;;;;;;5092953;28;20419;-65
2023/05/05 10:08:29;;;;;;;6.63;2.92;;;27.30;62.50;;;;;;5092801;28;20097;-64
2023/05/05 10:11:34;;;;;;;3.30;2.35;;;27.30;62.10;;;;;;5092879;28;20069;-65
2023/05/05 10:14:39;;;;;;;4.68;2.70;;;27.30;61.40;;;;;;5091875;28;20043;-66
2023/05/05 10:17:47;;;;;;;2.83;2.38;;;27.30;61.30;;;;;;5092619;28;20043;-64
2023/05/05 10:21:02;;;;;;;4.90;2.88;;;27.30;60.30;;;;;;5092800;28;20043;-66
2023/05/05 10:24:21;;;;;;;5.38;2.92;;;27.20;59.70;;;;;;5092190;28;20492;-66
2023/05/05 10:27:29;;;;;;;5.13;3.33;;;27.20;60.30;;;;;;5092230;28;20518;-65
2023/05/05 10:30:38;;;;;;;3.38;2.50;;;27.10;61.00;;;;;;5092683;28;20362;-64
2023/05/05 10:34:28;;;;;;;4.95;2.95;;;27.10;61.40;;;;;;5091680;28;20035;-66
2023/05/05 10:37:32;;;;;;;5.40;2.92;;;27.20;61.60;;;;;;5092083;28;20510;-66
2023/05/05 10:40:36;;;;;;;4.05;2.83;;;27.20;61.40;;;;;;5091642;28;20066;-66
2023/05/05 10:43:41;;;;;;;4.57;2.88;;;27.20;60.30;;;;;;5091654;28;20043;-64
2023/05/05 10:46:46;;;;;;;6.78;3.40;;;27.20;62.60;;;;;;5092135;28;20395;-66
2023/05/05 10:50:01;;;;;;;8.18;3.17;;;27.20;62.10;;;;;;5091116;28;20039;-66
2023/05/05 10:53:35;;;;;;;8.13;2.90;;;27.20;62.10;;;;;;5090852;28;20515;-65
2023/05/05 10:56:40;;;;;;;5.03;3.03;;;27.20;61.70;;;;;;5090178;28;20043;-65
2023/05/05 10:59:46;;;;;;;4.55;3.10;;;27.10;60.20;;;;;;5091062;28;20058;-68
2023/05/05 11:02:50;;;;;;;5.07;3.22;;;27.00;60.40;;;;;;5090728;28;20055;-66
2023/05/05 11:06:03;;;;;;;5.22;2.88;;;27.00;61.20;;;;;;5091378;28;20063;-66
2023/05/05 11:09:30;;;;;;;3.70;2.90;;;27.00;61.90;;;;;;5091761;28;20058;-66
2023/05/05 11:13:01;;;;;;;6.18;3.33;;;26.80;59.80;;;;;;5091279;28;20043;-66
2023/05/05 11:16:40;;;;;;;11.35;6.57;;;26.80;61.30;;;;;;5091870;28;20051;-66
2023/05/05 11:19:46;;;;;;;11.52;5.75;;;26.70;66.00;;;;;;5091801;28;20039;-67
2023/05/05 11:23:02;;;;;;;15.32;6.85;;;26.70;67.10;;;;;;5091280;28;20066;-67
2023/05/05 11:26:06;;;;;;;10.07;6.03;;;26.70;66.90;;;;;;5091806;28;20074;-68
2023/05/05 11:29:10;;;;;;;12.63;7.10;;;26.70;67.20;;;;;;5091662;28;20055;-67
2023/05/05 11:32:18;;;;;;;12.05;6.65;;;26.70;68.20;;;;;;5091313;28;20058;-67
2023/05/05 11:35:58;;;;;;;17.08;7.97;;;26.70;68.30;;;;;;5091457;28;20400;-66
2023/05/05 11:39:35;;;;;;;8.93;6.00;;;26.70;67.80;;;;;;5091608;28;20388;-67
2023/05/05 11:42:39;;;;;;;12.50;6.10;;;26.70;68.10;;;;;;5094784;28;20498;-66
2023/05/05 11:45:43;;;;;;;10.10;6.05;;;26.60;67.60;;;;;;5090104;28;20051;-65
2023/05/05 11:48:51;;;;;;;8.77;5.90;;;26.60;68.50;;;;;;5091535;28;20039;-66
2023/05/05 11:52:00;;;;;;;6.72;5.20;;;26.70;68.70;;;;;;5090913;28;20667;-67
2023/05/05 11:55:04;;;;;;;7.13;5.28;;;26.70;67.70;;;;;;5091696;28;20043;-65
2023/05/05 11:58:18;;;;;;;8.48;5.38;;;26.70;67.70;;;;;;5091835;28;20506;-65
2023/05/05 12:01:22;;;;;;;11.00;5.47;;;26.70;66.70;;;;;;5091562;28;20043;-65
2023/05/05 12:04:26;;;;;;;8.43;5.40;;;26.70;67.60;;;;;;5091614;28;20055;-68
2023/05/05 12:07:32;;;;;;;8.05;5.00;;;26.70;67.90;;;;;;5091040;28;20043;-66
2023/05/05 12:10:36;;;;;;;5.85;4.50;;;26.70;67.70;;;;;;5090680;28;20043;-66
2023/05/05 12:13:40;;;;;;;9.30;5.05;;;26.70;66.80;;;;;;5091052;28;20039;-66
2023/05/05 12:16:57;;;;;;;8.88;4.85;;;26.70;66.80;;;;;;5090934;28;20051;-65
2023/05/05 12:20:01;;;;;;;12.05;5.72;;;26.70;66.30;;;;;;5090845;28;20533;-64
2023/05/05 12:23:06;;;;;;;8.60;4.95;;;26.60;66.50;;;;;;5090745;28;20228;-65
2023/05/05 12:26:30;;;;;;;6.53;4.20;;;26.60;65.80;;;;;;5090729;28;20051;-63
2023/05/05 12:29:35;;;;;;;9.10;5.70;;;26.60;66.40;;;;;;5090732;28;20443;-65
2023/05/05 12:32:39;;;;;;;7.88;4.93;;;26.60;67.40;;;;;;5090562;28;20118;-65
2023/05/05 12:35:43;;;;;;;7.35;5.57;;;26.60;68.10;;;;;;5089882;28;20483;-64
2023/05/05 12:38:48;;;;;;;9.15;5.82;;;26.50;68.80;;;;;;5090925;28;20051;-66
2023/05/05 12:42:04;;;;;;;9.35;4.88;;;26.50;68.70;;;;;;5089518;28;20035;-65
2023/05/05 12:45:16;;;;;;;9.88;5.10;;;26.50;68.90;;;;;;5090506;28;20055;-64
2023/05/05 12:48:21;;;;;;;6.00;4.90;;;26.50;69.90;;;;;;5090669;28;20040;-65
2023/05/05 12:51:25;;;;;;;8.38;5.35;;;26.40;69.60;;;;;;5090562;28;20050;-64
2023/05/05 12:54:29;;;;;;;12.18;4.97;;;26.40;69.60;;;;;;5090277;28;20051;-65
2023/05/05 12:57:34;;;;;;;11.00;6.35;;;26.40;69.10;;;;;;5093934;28;20051;-63
2023/05/05 13:00:38;;;;;;;8.73;5.40;;;26.40;69.40;;;;;;5094213;28;20503;-63
2023/05/05 13:03:43;;;;;;;7.55;6.05;;;26.30;70.30;;;;;;5093923;28;20182;-65
2023/05/05 13:06:48;;;;;;;9.82;5.75;;;26.30;69.90;;;;;;5093798;28;20043;-65
2023/05/05 13:10:09;;;;;;;12.93;6.53;;;26.30;71.10;;;;;;5094233;28;20040;-65
2023/05/05 13:13:13;;;;;;;;;;;26.30;71.40;;;;;;5094319;28;20039;-65
2023/05/05 13:16:17;;;;;;;10.57;5.65;;;26.20;72.00;;;;;;5093062;28;19915;-65
2023/05/05 13:19:25;;;;;;;8.73;5.50;;;26.20;71.10;;;;;;5093711;28;20666;-64
2023/05/05 13:22:28;;;;;;;10.55;5.65;;;26.20;71.40;;;;;;5093701;28;20043;-64
2023/05/05 13:25:32;;;;;;;10.80;5.90;;;26.20;71.30;;;;;;5093756;28;20055;-65
2023/05/05 13:28:37;;;;;;;8.80;5.47;;;26.20;71.30;;;;;;5093389;28;20047;-63
2023/05/05 13:31:42;;;;;;;6.70;4.90;;;26.20;71.70;;;;;;5093438;28;20058;-65
2023/05/05 13:34:46;;;;;;;8.98;5.75;;;26.20;72.10;;;;;;5093627;28;20051;-65
2023/05/05 13:37:50;;;;;;;9.07;5.50;;;26.20;71.90;;;;;;5093467;28;20043;-64
2023/05/05 13:40:54;;;;;;;12.73;6.07;;;26.10;72.30;;;;;;5093503;28;20145;-66
2023/05/05 13:43:58;;;;;;;10.95;6.00;;;26.10;72.60;;;;;;5093211;28;20047;-67
2023/05/05 13:47:02;;;;;;;9.32;5.72;;;26.00;72.70;;;;;;5093320;28;20051;-65
2023/05/05 13:50:07;;;;;;;10.02;5.43;;;26.10;73.20;;;;;;5093102;28;20039;-67
2023/05/05 13:53:10;;;;;;;12.25;5.97;;;26.00;73.40;;;;;;5092072;28;20047;-66
2023/05/05 13:56:14;;;;;;;11.20;4.90;;;26.00;73.00;;;;;;5092704;28;20059;-65
2023/05/05 13:59:18;;;;;;;10.88;5.43;;;25.90;73.20;;;;;;5092657;28;20395;-66
2023/05/05 14:02:22;;;;;;;10.77;5.45;;;25.80;72.40;;;;;;5092813;28;20103;-67
2023/05/05 14:05:27;;;;;;;8.45;5.20;;;25.80;73.00;;;;;;5092815;28;20100;-66
2023/05/05 14:08:31;;;;;;;8.23;4.78;;;25.70;72.30;;;;;;5091061;28;20039;-66
2023/05/05 14:11:35;;;;;;;18.02;6.80;;;25.70;72.30;;;;;;5092815;28;20490;-65
2023/05/05 14:14:39;;;;;;;15.45;6.15;;;25.60;72.70;;;;;;5092818;28;20503;-66
2023/05/05 14:17:43;;;;;;;9.63;5.50;;;25.60;72.80;;;;;;5092507;28;20360;-67
2023/05/05 14:20:47;;;;;;;5.90;4.65;;;25.50;73.40;;;;;;5092738;28;20043;-66
2023/05/05 14:23:51;;;;;;;11.60;5.22;;;25.50;73.40;;;;;;5092635;28;20495;-65
2023/05/05 14:26:56;;;;;;;8.18;5.20;;;25.50;72.10;;;;;;5091549;28;20055;-66
2023/05/05 14:29:59;;;;;;;6.55;5.22;;;25.40;72.70;;;;;;5092323;28;20043;-66
2023/05/05 14:33:04;;;;;;;6.55;4.40;;;25.40;73.30;;;;;;5092358;28;20628;-67
2023/05/05 14:36:08;;;;;;;6.95;4.68;;;25.40;73.10;;;;;;5092345;28;20051;-67
2023/05/05 14:39:12;;;;;;;9.90;4.88;;;25.30;73.70;;;;;;5092383;28;20047;-65
2023/05/05 14:42:16;;;;;;;5.78;4.55;;;25.40;74.50;;;;;;5092047;28;20035;-66
2023/05/05 14:45:20;;;;;;;10.00;5.07;;;25.40;74.20;;;;;;5091211;28;20055;-65
2023/05/05 14:48:24;;;;;;;6.85;4.65;;;25.40;74.10;;;;;;5092067;28;20043;-67
2023/05/05 14:51:28;;;;;;;5.78;4.63;;;25.40;74.00;;;;;;5091742;28;20043;-66
2023/05/05 14:54:32;;;;;;;17.17;4.95;;;25.30;73.70;;;;;;5091980;28;20571;-64
2023/05/05 14:57:37;;;;;;;14.45;4.57;;;25.30;74.40;;;;;;5091754;28;20043;-66
2023/05/05 15:00:41;;;;;;;7.68;4.10;;;25.30;74.00;;;;;;5091973;28;20419;-64
2023/05/05 15:03:45;;;;;;;9.75;5.13;;;25.30;74.00;;;;;;5091714;28;20047;-65
2023/05/05 15:06:49;;;;;;;6.07;4.22;;;25.20;74.50;;;;;;5091401;28;20062;-67
2023/05/05 15:09:57;;;;;;;5.22;3.47;;;25.20;73.70;;;;;;5091705;28;20047;-64
2023/05/05 15:13:00;;;;;;;8.98;4.53;;;25.20;73.90;;;;;;5091428;28;20506;-63
2023/05/05 15:16:06;;;;;;;10.57;4.60;;;25.20;73.10;;;;;;5091734;28;20051;-66
2023/05/05 15:19:09;;;;;;;6.72;3.60;;;25.20;72.80;;;;;;5091028;28;20043;-66
2023/05/05 15:22:13;;;;;;;8.40;3.92;;;25.20;73.50;;;;;;5090589;28;20046;-65
2023/05/05 15:25:18;;;;;;;5.57;3.63;;;25.20;73.50;;;;;;5091137;28;20403;-65
2023/05/05 15:28:23;;;;;;;9.55;3.80;;;25.20;73.70;;;;;;5090877;28;20071;-66
2023/05/05 15:31:27;;;;;;;8.75;4.45;;;25.20;74.00;;;;;;5090995;28;20047;-67
2023/05/05 15:34:31;;;;;;;11.35;4.57;;;25.20;74.20;;;;;;5091247;28;20114;-67
2023/05/05 15:37:36;;;;;;;9.80;5.10;;;25.20;73.60;;;;;;5091086;28;20399;-65
2023/05/05 15:40:42;;;;;;;7.20;4.47;;;25.20;73.60;;;;;;5090483;28;20557;-66
2023/05/05 15:43:46;;;;;;;11.95;4.88;;;25.20;73.70;;;;;;5090747;28;20043;-65
2023/05/05 15:46:50;;;;;;;8.75;4.30;;;25.10;73.90;;;;;;5089854;28;20051;-66
2023/05/05 15:49:54;;;;;;;8.18;4.35;;;25.10;73.90;;;;;;5089918;28;20039;-67
2023/05/05 15:52:59;;;;;;;8.27;4.65;;;25.10;73.80;;;;;;5090696;28;20051;-66
2023/05/05 15:56:03;;;;;;;12.02;4.13;;;25.00;73.30;;;;;;5090924;28;20388;-66
2023/05/05 15:59:07;;;;;;;15.85;4.85;;;24.90;73.80;;;;;;5090835;28;20056;-67
2023/05/05 16:02:11;;;;;;;9.45;4.53;;;24.80;74.30;;;;;;5090955;28;20244;-66
2023/05/05 16:05:16;;;;;;;10.77;3.75;;;24.70;73.40;;;;;;5090879;28;20070;-65